Time;durP1;ratioP1;P1;durP2;ratioP2;P2;SDS_P1;SDS_P2;PMS_P1;PMS_P2;Temp;Humidity;BMP_temperature;BMP_pressure;BME280_temperature;BME280_humidity;BME280_pressure;Samples;Min_cycle;Max_cycle;Signal;HPM_P1;HPM_P2
2022/06/17 00:00:58;;;;;;;;;12.75;12.00;;;;;24.39;38.16;101547.88;5075161;27;46276;-61
2022/06/17 00:03:25;;;;;;;;;15.50;12.25;;;;;24.38;38.13;101543.44;5076787;27;45467;-61
2022/06/17 00:05:53;;;;;;;;;12.33;10.67;;;;;24.34;38.39;101533.88;5075695;27;45501;-62
2022/06/17 00:08:29;;;;;;;;;16.00;14.00;;;;;24.36;38.86;101532.72;5071762;28;45347;-62
2022/06/17 00:10:55;;;;;;;;;13.75;13.75;;;;;24.32;38.32;101535.88;5092423;27;47111;-61
2022/06/17 00:13:21;;;;;;;;;12.50;11.00;;;;;24.31;39.18;101528.75;5076213;27;45307;-61
2022/06/17 00:15:47;;;;;;;;;12.75;12.75;;;;;24.27;38.67;101527.31;5076939;27;45284;-64
2022/06/17 00:18:15;;;;;;;;;17.25;12.25;;;;;24.27;38.77;101538.19;5074813;27;45254;-61
2022/06/17 00:20:42;;;;;;;;;11.00;11.00;;;;;24.24;38.74;101528.47;5076089;27;45544;-62
2022/06/17 00:23:17;;;;;;;;;13.50;11.00;;;;;24.23;38.82;101531.34;5071776;27;45332;-61
2022/06/17 00:25:47;;;;;;;;;10.00;10.00;;;;;24.20;38.75;101526.19;5076814;27;45449;-60
2022/06/17 00:28:16;;;;;;;;;8.50;8.50;;;;;24.12;39.02;101532.41;5076079;27;45419;-63
2022/06/17 00:30:42;;;;;;;;;12.50;12.50;;;;;24.07;39.47;101527.41;5075425;27;46669;-62
2022/06/17 00:33:09;;;;;;;;;10.67;10.67;;;;;24.05;38.99;101523.13;5066796;28;45736;-62
2022/06/17 00:35:39;;;;;;;;;14.00;12.00;;;;;24.03;39.70;101531.44;5076623;27;45447;-63
2022/06/17 00:38:09;;;;;;;;;9.50;9.50;;;;;24.03;39.14;101539.59;5073570;27;45520;-61
2022/06/17 00:40:35;;;;;;;;;15.67;14.00;;;;;24.03;39.51;101536.88;5074851;28;45417;-61
2022/06/17 00:43:05;;;;;;;;;12.33;12.33;;;;;24.02;39.46;101537.88;5073664;27;45408;-62
2022/06/17 00:46:12;;;;;;;;;12.00;12.00;;;;;24.02;39.21;101526.16;5092408;27;45515;-62
2022/06/17 00:48:49;;;;;;;;;13.33;13.33;;;;;24.02;39.27;101529.72;5075599;28;45398;-63
2022/06/17 00:51:27;;;;;;;;;9.33;9.33;;;;;23.98;39.36;101528.34;5075363;27;45446;-60
2022/06/17 00:54:06;;;;;;;;;10.67;10.67;;;;;24.00;39.90;101536.31;5076484;27;45260;-62
2022/06/17 00:56:35;;;;;;;;;11.33;11.33;;;;;23.95;39.69;101533.19;5070155;27;45531;-61
2022/06/17 00:59:15;;;;;;;;;13.00;12.50;;;;;23.93;40.06;101530.63;5074331;27;45499;-61
2022/06/17 01:01:58;;;;;;;;;10.25;10.25;;;;;23.93;39.74;101533.34;5075869;27;45353;-60
2022/06/17 01:04:27;;;;;;;;;12.75;11.75;;;;;23.94;39.88;101536.91;5055698;28;45358;-63
2022/06/17 01:06:58;;;;;;;;;12.33;12.33;;;;;23.94;40.21;101543.19;5062075;28;45317;-62
2022/06/17 01:12:16;;;;;;;;;12.00;12.00;;;;;23.89;39.80;101540.09;5056730;28;45766;-61
2022/06/17 01:14:43;;;;;;;;;12.00;11.00;;;;;23.89;40.47;101542.81;5073261;28;45758;-62
2022/06/17 01:17:10;;;;;;;;;12.75;10.25;;;;;23.88;39.80;101543.81;5075061;27;45382;-63
2022/06/17 01:19:47;;;;;;;;;14.25;13.75;;;;;23.87;40.00;101552.97;5074583;28;45358;-62
2022/06/17 01:22:26;;;;;;;;;11.00;11.00;;;;;23.86;40.36;101545.81;5055317;28;46185;-61
2022/06/17 01:25:02;;;;;;;;;9.75;9.75;;;;;23.86;40.04;101545.81;5056174;28;45354;-62
2022/06/17 01:27:33;;;;;;;;;14.00;13.00;;;;;23.83;40.46;101548.84;5075701;27;45333;-62
2022/06/17 01:29:58;;;;;;;;;10.67;10.67;;;;;23.81;40.55;101542.69;5075456;27;45332;-61
2022/06/17 01:32:28;;;;;;;;;12.00;11.00;;;;;23.79;40.29;101547.41;5076003;27;46329;-64
2022/06/17 01:34:53;;;;;;;;;12.33;10.33;;;;;23.79;41.01;101544.69;5090432;27;45356;-64
2022/06/17 01:37:20;;;;;;;;;13.67;12.67;;;;;23.76;40.69;101550.44;5073748;28;46855;-62
2022/06/17 01:39:45;;;;;;;;;10.00;10.00;;;;;23.74;40.70;101557.88;5074767;27;45453;-61
2022/06/17 01:42:12;;;;;;;;;10.50;10.50;;;;;23.75;40.76;101559.59;5074368;27;46136;-61
2022/06/17 01:44:40;;;;;;;;;13.50;12.25;;;;;23.72;40.93;101549.88;5074100;27;45486;-63
2022/06/17 01:47:19;;;;;;;;;13.25;12.00;;;;;23.69;40.28;101549.28;5075748;27;46174;-62
2022/06/17 01:49:54;;;;;;;;;12.00;12.00;;;;;23.69;40.66;101549.28;5079400;27;45417;-61
2022/06/17 01:52:27;;;;;;;;;11.33;11.33;;;;;23.68;41.09;101558.44;5077887;28;46229;-63
2022/06/17 01:54:56;;;;;;;;;14.00;13.33;;;;;23.69;40.92;101571.03;5077815;27;45595;-63
2022/06/17 01:57:29;;;;;;;;;9.33;9.33;;;;;23.68;40.88;101581.03;5078218;27;45519;-61
2022/06/17 02:00:00;;;;;;;;;9.67;9.67;;;;;23.63;40.87;101582.50;5078763;27;45317;-60
2022/06/17 02:02:27;;;;;;;;;11.75;11.75;;;;;23.62;41.71;101578.06;5077678;27;45270;-61
2022/06/17 02:04:59;;;;;;;;;12.00;12.00;;;;;23.61;41.90;101579.06;5080232;27;45332;-61
2022/06/17 02:07:33;;;;;;;;;13.33;13.33;;;;;23.58;41.88;101582.09;5074528;27;45477;-60
2022/06/17 02:09:59;;;;;;;;;8.67;8.67;;;;;23.51;41.74;101574.47;5079700;27;45612;-62
2022/06/17 02:12:27;;;;;;;;;14.00;14.00;;;;;23.42;42.94;101594.34;5075907;28;46174;-63
2022/06/17 02:14:54;;;;;;;;;17.67;16.00;;;;;23.29;43.13;101592.94;5079101;27;45391;-62
2022/06/17 02:17:21;;;;;;;;;12.33;12.00;;;;;23.22;42.97;101595.38;5077359;27;45612;-60
2022/06/17 02:19:47;;;;;;;;;15.00;12.33;;;;;23.14;43.16;101587.09;5080364;27;45521;-61
2022/06/17 02:22:19;;;;;;;;;15.00;15.00;;;;;23.13;43.15;101593.50;5078778;28;46153;-61
2022/06/17 02:24:49;;;;;;;;;13.00;13.00;;;;;23.06;43.84;101605.97;5076572;27;45337;-61
2022/06/17 02:27:15;;;;;;;;;15.67;14.00;;;;;23.03;43.91;101596.22;5080934;27;45643;-61
2022/06/17 02:29:43;;;;;;;;;19.33;16.67;;;;;22.97;44.05;101604.94;5077700;27;45413;-61
2022/06/17 02:32:10;;;;;;;;;14.33;14.00;;;;;22.91;43.83;101609.06;5078124;27;46390;-61
2022/06/17 02:34:54;;;;;;;;;16.00;13.00;;;;;22.91;44.11;101606.34;5074602;28;45442;-62
2022/06/17 02:37:20;;;;;;;;;14.00;12.33;;;;;22.90;44.48;101601.91;5077401;27;45347;-60
2022/06/17 02:39:49;;;;;;;;;14.33;12.00;;;;;22.87;44.56;101604.06;5076953;27;45528;-61
2022/06/17 02:42:30;;;;;;;;;13.67;12.00;;;;;22.82;44.18;101596.34;5093854;27;46266;-59
2022/06/17 02:45:10;;;;;;;;;13.33;11.33;;;;;22.81;44.61;101597.34;5077186;27;45519;-61
2022/06/17 02:47:38;;;;;;;;;13.00;13.00;;;;;22.79;44.83;101604.75;5078269;28;45261;-62
2022/06/17 02:50:04;;;;;;;;;15.00;14.00;;;;;22.77;44.83;101604.00;5077531;27;45490;-60
2022/06/17 02:52:36;;;;;;;;;14.67;13.33;;;;;22.75;44.77;101608.72;5078127;27;45363;-62
2022/06/17 02:55:08;;;;;;;;;18.00;17.67;;;;;22.76;44.73;101609.59;5076806;27;45508;-61
2022/06/17 02:57:33;;;;;;;;;16.00;14.67;;;;;22.77;44.88;101612.16;5077528;27;45376;-61
2022/06/17 03:00:11;;;;;;;;;16.00;16.00;;;;;22.73;44.23;101605.31;5075949;27;45425;-62
2022/06/17 03:02:47;;;;;;;;;21.33;18.00;;;;;22.70;44.56;101600.16;5077955;28;45640;-61
2022/06/17 03:05:25;;;;;;;;;15.67;14.33;;;;;22.68;44.95;101602.16;5076366;27;45263;-61
2022/06/17 03:07:52;;;;;;;;;17.33;15.33;;;;;22.67;45.27;101606.75;5076574;28;45405;-60
2022/06/17 03:10:40;;;;;;;;;16.67;16.67;;;;;22.65;44.62;101603.28;5082834;27;45543;-60
2022/06/17 03:13:12;;;;;;;;;13.67;13.67;;;;;22.65;44.98;101600.56;5074787;27;45398;-60
2022/06/17 03:15:40;;;;;;;;;15.67;15.33;;;;;22.68;44.97;101588.59;5089206;27;45767;-62
2022/06/17 03:18:06;;;;;;;;;14.33;14.00;;;;;22.70;45.21;101581.19;5076575;28;45362;-62
2022/06/17 03:20:34;;;;;;;;;13.67;12.67;;;;;22.73;45.55;101583.59;5076088;27;45263;-61
2022/06/17 03:23:12;;;;;;;;;15.33;14.67;;;;;22.73;44.63;101580.91;5076809;28;46288;-61
2022/06/17 03:26:06;;;;;;;;;18.33;16.67;;;;;22.73;44.71;101580.91;5074573;27;45554;-61
2022/06/17 03:28:44;;;;;;;;;21.00;17.00;;;;;22.72;44.36;101587.31;5076473;27;45369;-62
2022/06/17 03:31:20;;;;;;;;;13.00;11.67;;;;;22.74;44.23;101577.19;5074722;27;45590;-61
2022/06/17 03:34:00;;;;;;;;;16.00;14.33;;;;;22.76;44.83;101577.03;5077209;27;45413;-61
2022/06/17 03:36:42;;;;;;;;;14.00;12.33;;;;;22.75;44.95;101570.75;5091716;27;45836;-61
2022/06/17 03:39:17;;;;;;;;;16.33;14.67;;;;;22.75;44.89;101565.34;5077510;27;45381;-62
2022/06/17 03:41:51;;;;;;;;;14.67;13.67;;;;;22.76;44.45;101561.63;5073589;28;46942;-60
2022/06/17 03:44:20;;;;;;;;;11.00;11.00;;;;;22.76;43.11;101548.06;5074250;27;46289;-61
2022/06/17 03:46:51;;;;;;;;;12.33;12.00;;;;;22.78;43.40;101535.22;5073629;27;45441;-62
2022/06/17 03:49:27;;;;;;;;;10.25;9.25;;;;;22.80;42.47;101540.53;5074061;27;45347;-59
2022/06/17 03:52:02;;;;;;;;;10.67;10.00;;;;;22.80;42.21;101579.34;5109537;27;45676;-59
2022/06/17 03:54:28;;;;;;;;;8.00;8.00;;;;;22.79;41.52;101593.06;5072366;27;46253;-62
2022/06/17 03:56:53;;;;;;;;;13.67;11.00;;;;;22.81;42.19;101596.47;5076336;27;45378;-62
2022/06/17 03:59:23;;;;;;;;;11.00;8.67;;;;;22.81;41.92;101591.06;5075445;27;46976;-60
2022/06/17 04:01:55;;;;;;;;;8.25;7.50;;;;;22.79;41.75;101601.19;5077225;27;45444;-63
2022/06/17 04:04:28;;;;;;;;;9.33;8.33;;;;;22.83;42.60;101602.66;5072485;28;46323;-62
2022/06/17 04:06:57;;;;;;;;;11.67;11.33;;;;;22.82;42.30;101607.19;5076718;27;45234;-63
2022/06/17 04:09:31;;;;;;;;;7.33;6.00;;;;;22.83;42.22;101602.66;5075644;27;45413;-60
2022/06/17 04:12:02;;;;;;;;;10.00;10.00;;;;;22.84;42.17;101601.66;5076952;27;45873;-63
2022/06/17 04:14:45;;;;;;;;;10.33;10.33;;;;;22.84;41.94;101596.22;5074730;27;46457;-61
2022/06/17 04:17:40;;;;;;;;;10.00;10.00;;;;;22.84;42.03;101597.06;5076922;28;45254;-61
2022/06/17 04:20:26;;;;;;;;;12.33;10.00;;;;;22.83;42.41;101584.53;5069773;28;45282;-62
2022/06/17 04:22:56;;;;;;;;;11.00;8.00;;;;;22.85;42.78;101589.78;5076173;27;45405;-63
2022/06/17 04:25:32;;;;;;;;;10.00;9.00;;;;;22.87;42.33;101596.78;5076558;27;45404;-62
2022/06/17 04:28:06;;;;;;;;;10.33;8.67;;;;;22.84;42.50;101585.38;5075671;28;45459;-62
2022/06/17 04:30:36;;;;;;;;;10.67;10.67;;;;;22.90;42.47;101595.63;5073164;27;45380;-63
2022/06/17 04:33:18;;;;;;;;;10.33;10.33;;;;;22.91;42.09;101592.78;5073236;27;45655;-63
2022/06/17 04:35:43;;;;;;;;;10.67;10.67;;;;;22.88;42.57;101587.66;5074991;27;46548;-62
2022/06/17 04:38:09;;;;;;;;;11.00;9.00;;;;;22.95;42.11;101596.94;5074240;28;45420;-62
2022/06/17 04:40:41;;;;;;;;;9.33;9.33;;;;;22.95;41.89;101588.81;5075629;28;45342;-64
2022/06/17 04:43:21;;;;;;;;;10.67;9.67;;;;;22.97;41.93;101601.38;5075632;27;45340;-63
2022/06/17 04:46:13;;;;;;;;;11.33;10.00;;;;;22.99;42.22;101604.78;5069012;28;45520;-63
2022/06/17 04:48:39;;;;;;;;;11.67;9.00;;;;;23.01;42.20;101600.09;5076638;27;45433;-62
2022/06/17 04:51:05;;;;;;;;;14.00;11.00;;;;;22.98;42.18;101598.50;5075907;27;45440;-64
2022/06/17 04:53:33;;;;;;;;;10.00;9.00;;;;;23.00;42.61;101603.78;5074377;27;45660;-62
2022/06/17 04:56:00;;;;;;;;;11.25;8.50;;;;;23.02;42.35;101604.50;5074991;27;45265;-61
2022/06/17 04:58:27;;;;;;;;;11.00;9.33;;;;;23.02;42.30;101607.22;5074950;27;45593;-62
2022/06/17 05:00:55;;;;;;;;;8.67;8.67;;;;;23.03;42.31;101603.50;5074481;27;45388;-62
2022/06/17 05:03:29;;;;;;;;;9.50;9.50;;;;;23.01;41.92;101609.06;5075884;27;45543;-62
2022/06/17 05:05:54;;;;;;;;;12.00;12.00;;;;;23.03;41.88;101609.78;5076056;27;45361;-62
2022/06/17 05:08:34;;;;;;;;;9.33;9.33;;;;;23.04;41.88;101607.94;5074407;27;45503;-60
2022/06/17 05:11:14;;;;;;;;;8.33;8.33;;;;;23.03;41.92;101598.94;5074848;27;45305;-63
2022/06/17 05:13:46;;;;;;;;;11.33;11.33;;;;;23.07;41.38;101604.97;5074251;27;45475;-62
2022/06/17 05:16:12;;;;;;;;;9.67;9.67;;;;;23.06;42.29;101598.66;5073425;28;45422;-62
2022/06/17 05:18:38;;;;;;;;;11.00;9.33;;;;;23.06;42.23;101601.38;5075462;27;45532;-63
2022/06/17 05:21:04;;;;;;;;;11.75;9.25;;;;;23.07;41.89;101604.97;5074807;28;45471;-63
2022/06/17 05:23:29;;;;;;;;;6.00;6.00;;;;;23.08;41.74;101601.25;5077018;27;45540;-61
2022/06/17 05:25:55;;;;;;;;;5.75;5.00;;;;;23.09;41.91;101589.38;5090369;27;45513;-62
2022/06/17 05:28:21;;;;;;;;;8.00;8.00;;;;;23.07;41.67;101589.53;5076076;27;45860;-63
2022/06/17 05:30:51;;;;;;;;;10.00;10.00;;;;;23.10;42.58;101585.66;5078251;27;45775;-64
2022/06/17 05:33:19;;;;;;;;;12.33;8.67;;;;;23.11;42.35;101581.94;5078472;27;45488;-61
2022/06/17 05:35:44;;;;;;;;;12.00;12.00;;;;;23.14;42.33;101582.50;5076247;27;46330;-62
2022/06/17 05:38:10;;;;;;;;;9.33;8.00;;;;;23.16;41.41;101568.81;5076960;27;45740;-63
2022/06/17 05:40:37;;;;;;;;;9.25;9.25;;;;;23.17;41.96;101575.94;5070668;27;45587;-61
2022/06/17 05:43:03;;;;;;;;;13.67;11.00;;;;;23.19;41.99;101577.53;5076313;27;45981;-61
2022/06/17 05:45:29;;;;;;;;;10.67;9.33;;;;;23.19;42.46;101576.69;5076625;27;46038;-59
2022/06/17 05:47:54;;;;;;;;;9.33;8.67;;;;;23.20;42.71;101572.97;5074270;27;45776;-68
2022/06/17 05:50:22;;;;;;;;;13.33;11.33;;;;;23.20;42.10;101565.69;5078078;27;45455;-61
2022/06/17 05:52:51;;;;;;;;;11.00;11.00;;;;;23.27;41.97;101582.22;5075242;27;45501;-61
2022/06/17 05:55:17;;;;;;;;;12.33;9.67;;;;;23.29;41.85;101580.22;5075101;27;46225;-63
2022/06/17 05:57:42;;;;;;;;;14.00;14.00;;;;;23.31;41.88;101578.25;5078814;27;45535;-64
2022/06/17 06:00:08;;;;;;;;;9.00;9.00;;;;;23.36;41.71;101575.94;5075216;28;46801;-60
2022/06/17 06:02:34;;;;;;;;;8.67;8.67;;;;;23.34;41.33;101577.94;5079167;27;45563;-61
2022/06/17 06:04:59;;;;;;;;;11.50;8.50;;;;;23.36;41.85;101584.06;5076240;27;50743;-60
2022/06/17 06:07:25;;;;;;;;;11.00;11.00;;;;;23.38;42.15;101584.78;5109318;27;45271;-59
2022/06/17 06:09:51;;;;;;;;;10.67;10.33;;;;;23.38;41.05;101589.34;5077662;27;45604;-48
2022/06/17 06:12:17;;;;;;;;;8.00;8.00;;;;;23.33;40.93;101587.09;5076335;27;45460;-46
2022/06/17 06:14:43;;;;;;;;;11.50;10.50;;;;;23.36;41.65;101591.38;5109097;27;46101;-50
2022/06/17 06:17:11;;;;;;;;;7.33;7.33;;;;;23.32;41.80;101569.09;5075731;28;45510;-46
2022/06/17 06:19:36;;;;;;;;;11.33;11.00;;;;;23.41;41.51;101575.50;5077545;27;45562;-47
2022/06/17 06:22:02;;;;;;;;;12.00;9.00;;;;;23.52;41.41;101564.47;5076728;27;45377;-49
2022/06/17 06:24:28;;;;;;;;;8.00;8.00;;;;;23.55;41.13;101564.16;5074628;28;45498;-52
2022/06/17 06:26:54;;;;;;;;;11.00;11.00;;;;;23.61;41.48;101562.78;5077956;27;45370;-49
2022/06/17 06:29:20;;;;;;;;;11.67;11.67;;;;;23.63;40.92;101550.75;5073656;27;45305;-49
2022/06/17 06:31:48;;;;;;;;;11.00;11.00;;;;;23.67;40.91;101545.88;5079697;27;45582;-58
2022/06/17 06:34:15;;;;;;;;;12.00;11.00;;;;;23.71;40.83;101544.59;5063458;27;45780;-58
2022/06/17 06:36:42;;;;;;;;;11.50;10.00;;;;;23.76;40.62;101543.13;5070906;27;45301;-59
2022/06/17 06:39:08;;;;;;;;;10.50;10.50;;;;;23.78;40.78;101548.41;5075641;27;45254;-53
2022/06/17 06:41:33;;;;;;;;;9.00;8.67;;;;;23.77;40.94;101542.13;5078119;27;45544;-59
2022/06/17 06:43:59;;;;;;;;;12.33;11.33;;;;;23.85;40.57;101552.25;5074629;27;46198;-57
2022/06/17 06:46:24;;;;;;;;;14.00;11.33;;;;;23.87;41.18;101549.41;5076866;27;45516;-59
2022/06/17 06:48:50;;;;;;;;;12.33;10.67;;;;;23.92;40.80;101553.38;5077762;27;45299;-57
2022/06/17 06:51:16;;;;;;;;;12.67;10.33;;;;;23.93;40.56;101556.94;5077512;27;45647;-55
2022/06/17 06:53:42;;;;;;;;;11.33;11.33;;;;;23.98;40.57;101554.66;5074592;27;45488;-57
2022/06/17 06:56:08;;;;;;;;;12.00;10.67;;;;;24.01;41.11;101546.19;5075807;27;45492;-57
2022/06/17 06:58:33;;;;;;;;;13.33;11.00;;;;;24.05;40.42;101553.88;5075123;27;45345;-54
2022/06/17 07:00:59;;;;;;;;;15.67;11.33;;;;;24.10;40.78;101548.88;5074373;28;45582;-59
2022/06/17 07:03:27;;;;;;;;;12.67;10.00;;;;;24.20;40.82;101550.66;5074208;28;46690;-56
2022/06/17 07:05:55;;;;;;;;;14.00;13.67;;;;;24.24;40.09;101547.50;5074227;27;45390;-59
2022/06/17 07:08:24;;;;;;;;;11.67;11.67;;;;;24.31;40.93;101561.38;5072247;27;45513;-61
2022/06/17 07:10:53;;;;;;;;;15.75;12.50;;;;;24.37;40.02;101561.63;5076660;27;45479;-58
2022/06/17 07:13:21;;;;;;;;;12.25;12.25;;;;;24.44;40.33;101563.72;5059359;28;46258;-59
2022/06/17 07:15:47;;;;;;;;;5.00;5.00;;;;;24.46;39.61;101570.72;5077404;27;45458;-60
2022/06/17 07:18:25;;;;;;;;;11.00;9.50;;;;;24.47;39.94;101566.97;5076491;27;45810;-62
2022/06/17 07:20:53;;;;;;;;;11.00;9.75;;;;;24.56;40.36;101565.22;5091793;27;45360;-65
2022/06/17 07:23:32;;;;;;;;;12.50;12.50;;;;;24.63;39.64;101569.91;5069807;28;45381;-67
2022/06/17 07:25:59;;;;;;;;;12.75;10.50;;;;;24.67;39.70;101567.72;5075892;28;45340;-62
2022/06/17 07:28:26;;;;;;;;;12.00;9.75;;;;;24.77;39.81;101562.22;5075619;27;45476;-59
2022/06/17 07:30:54;;;;;;;;;13.00;13.00;;;;;24.83;39.50;101567.88;5090341;27;45332;-62
2022/06/17 07:33:22;;;;;;;;;12.25;12.25;;;;;24.86;39.39;101553.97;5073139;27;46086;-61
2022/06/17 07:35:49;;;;;;;;;11.25;11.25;;;;;24.98;38.55;101573.63;5069244;27;45404;-60
2022/06/17 07:41:07;;;;;;;;;13.75;13.00;;;;;25.09;38.16;101578.88;5072723;27;45534;-62
2022/06/17 07:43:33;;;;;;;;;12.50;11.50;;;;;25.18;38.51;101588.84;5076135;27;45997;-60
2022/06/17 07:46:01;;;;;;;;;14.50;13.00;;;;;25.25;37.84;101589.03;5085117;27;46609;-63
2022/06/17 07:48:27;;;;;;;;;8.00;8.00;;;;;25.32;37.78;101605.63;5110292;27;45343;-61
2022/06/17 07:50:58;;;;;;;;;15.50;12.75;;;;;25.36;37.49;101604.28;5076745;27;45496;-61
2022/06/17 07:53:26;;;;;;;;;11.25;10.25;;;;;25.45;37.76;101606.06;5073741;27;45487;-60
2022/06/17 07:55:52;;;;;;;;;12.25;10.00;;;;;25.55;37.50;101615.88;5086445;27;45772;-59
2022/06/17 07:58:17;;;;;;;;;12.75;10.00;;;;;25.63;36.64;101612.31;5076738;27;45283;-60
2022/06/17 08:00:44;;;;;;;;;11.50;11.50;;;;;25.71;37.69;101620.59;5066813;27;45564;-61
2022/06/17 08:03:14;;;;;;;;;8.25;8.25;;;;;25.74;36.76;101624.88;5100166;27;45479;-58
2022/06/17 08:05:42;;;;;;;;;12.25;12.25;;;;;25.83;36.93;101641.13;5099006;27;45577;-60
2022/06/17 08:08:08;;;;;;;;;14.50;12.00;;;;;25.91;37.09;101625.81;5061428;28;45427;-58
2022/06/17 08:10:35;;;;;;;;;11.25;10.50;;;;;26.02;36.18;101625.56;5062743;27;45605;-60
2022/06/17 08:13:03;;;;;;;;;10.75;10.75;;;;;26.09;36.07;101627.50;5057370;28;46230;-61
2022/06/17 08:15:29;;;;;;;;;14.00;11.25;;;;;26.20;36.67;101620.91;5071694;27;45372;-60
2022/06/17 08:17:55;;;;;;;;;9.50;9.25;;;;;26.26;36.72;101622.97;5063804;27;45465;-61
2022/06/17 08:20:27;;;;;;;;;9.25;9.00;;;;;26.37;36.34;101630.91;5071058;28;45468;-61
2022/06/17 08:22:52;;;;;;;;;9.25;9.25;;;;;26.48;35.93;101623.44;5066233;27;45419;-61
2022/06/17 08:25:18;;;;;;;;;13.50;13.50;;;;;26.68;35.88;101624.84;5096955;27;46248;-60
2022/06/17 08:27:46;;;;;;;;;20.00;18.25;;;;;26.98;35.03;101621.53;5075388;27;45484;-61
2022/06/17 08:30:13;;;;;;;;;10.00;10.00;;;;;27.33;34.51;101611.34;5054350;28;45425;-62
2022/06/17 08:32:44;;;;;;;;;11.00;11.00;;;;;27.83;34.70;101613.03;5076796;27;45431;-62
2022/06/17 08:35:10;;;;;;;;;11.60;11.60;;;;;28.37;32.92;101605.03;5075878;27;45630;-61
2022/06/17 08:37:39;;;;;;;;;12.75;11.00;;;;;28.87;32.62;101603.72;5074002;27;45731;-59
2022/06/17 08:40:19;;;;;;;;;10.50;9.75;;;;;29.24;32.96;101603.84;5073468;28;45377;-61
2022/06/17 08:43:03;;;;;;;;;12.40;12.00;;;;;29.81;32.02;101608.81;5100480;27;45579;-57
2022/06/17 08:46:02;;;;;;;;;6.80;6.40;;;;;30.31;31.37;101598.16;5062635;27;45515;-56
2022/06/17 08:49:01;;;;;;;;;10.60;10.60;;;;;30.83;30.66;101584.25;5092233;27;45530;-60
2022/06/17 08:51:51;;;;;;;;;13.60;12.00;;;;;31.23;30.41;101585.50;5074404;27;45528;-58
2022/06/17 08:54:24;;;;;;;;;11.00;11.00;;;;;31.55;27.21;101584.09;5065153;28;45525;-58
2022/06/17 08:56:59;;;;;;;;;8.20;8.20;;;;;31.89;27.13;101579.69;5087654;27;45309;-63
2022/06/17 08:59:50;;;;;;;;;12.00;10.00;;;;;32.10;28.50;101576.03;5061617;27;45593;-62
2022/06/17 09:03:01;;;;;;;;;11.60;7.80;;;;;32.44;27.33;101577.91;5061817;27;45405;-59
2022/06/17 09:05:41;;;;;;;;;8.00;8.00;;;;;32.77;27.72;101584.34;5072348;27;46404;-59
2022/06/17 09:08:17;;;;;;;;;12.60;7.40;;;;;33.03;24.79;101582.75;5073813;27;45397;-57
2022/06/17 09:11:04;;;;;;;;;10.00;10.00;;;;;33.05;26.33;101575.97;5074091;27;45414;-61
2022/06/17 09:13:41;;;;;;;;;8.20;8.20;;;;;33.34;25.14;101577.50;5073374;27;45429;-60
2022/06/17 09:16:18;;;;;;;;;8.40;8.00;;;;;33.46;26.32;101577.69;5067003;27;46259;-62
2022/06/17 09:18:50;;;;;;;;;6.00;6.00;;;;;33.69;23.50;101580.00;5077195;27;45315;-62
2022/06/17 09:21:27;;;;;;;;;8.20;8.20;;;;;34.02;23.41;101579.97;5081172;27;45346;-61
2022/06/17 09:24:00;;;;;;;;;7.80;7.80;;;;;34.27;24.34;101569.06;5076009;27;45205;-61
2022/06/17 09:26:30;;;;;;;;;7.60;7.00;;;;;34.50;24.22;101574.91;5069721;27;45535;-62
2022/06/17 09:29:09;;;;;;;;;8.60;8.20;;;;;34.79;24.37;101578.19;5058865;28;45536;-61
2022/06/17 09:31:44;;;;;;;;;8.60;8.60;;;;;34.98;24.43;101560.63;5075265;27;45471;-62
2022/06/17 09:34:31;;;;;;;;;8.00;8.00;;;;;35.25;22.81;101565.97;5087688;27;45661;-62
2022/06/17 09:37:12;;;;;;;;;8.80;8.40;;;;;35.48;23.46;101563.44;5054545;28;45437;-60
2022/06/17 09:39:53;;;;;;;;;8.00;8.00;;;;;35.57;21.51;101564.84;5069087;28;45452;-62
2022/06/17 09:42:26;;;;;;;;;8.00;8.00;;;;;35.71;22.61;101566.41;5075221;27;45513;-62
2022/06/17 09:45:02;;;;;;;;;9.00;7.60;;;;;35.86;22.02;101562.47;5091376;27;45381;-61
2022/06/17 09:47:32;;;;;;;;;9.20;9.20;;;;;36.08;22.94;101572.00;5074706;27;45369;-59
2022/06/17 09:50:13;;;;;;;;;9.00;9.00;;;;;36.18;22.94;101565.91;5072282;27;45492;-60
2022/06/17 09:52:47;;;;;;;;;7.80;7.80;;;;;36.24;22.12;101571.38;5054814;28;45400;-60
2022/06/17 09:55:23;;;;;;;;;8.40;7.80;;;;;36.29;22.86;101567.91;5061544;28;45199;-61
2022/06/17 09:58:00;;;;;;;;;8.00;7.20;;;;;36.27;20.27;101559.81;5073710;27;46199;-61
2022/06/17 10:00:32;;;;;;;;;17.40;13.40;;;;;36.46;22.93;101559.81;5074764;27;45270;-61
2022/06/17 10:03:15;;;;;;;;;8.00;8.00;;;;;36.36;20.34;101573.41;5075578;27;45270;-58
2022/06/17 10:06:19;;;;;;;;;7.40;7.40;;;;;36.51;22.19;101571.91;5078197;27;45343;-62
2022/06/17 10:09:09;;;;;;;;;7.00;7.00;;;;;36.74;20.77;101556.47;5076429;27;46604;-67
2022/06/17 10:11:40;;;;;;;;;7.40;7.40;;;;;36.83;21.12;101566.97;5074986;27;45400;-66
2022/06/17 10:14:24;;;;;;;;;8.60;8.60;;;;;36.90;21.31;101564.97;5077335;27;45345;-70
2022/06/17 10:20:12;;;;;;;;;12.00;11.60;;;;;36.96;20.14;101557.63;5077650;28;45461;-64
2022/06/17 10:23:02;;;;;;;;;13.00;11.40;;;;;36.89;20.79;101563.28;5077875;27;45502;-62
2022/06/17 10:25:50;;;;;;;;;10.00;10.00;;;;;36.92;20.48;101551.72;5064352;28;45745;-61
2022/06/17 10:28:45;;;;;;;;;8.00;8.00;;;;;36.81;21.06;101541.44;5077659;27;45809;-62
2022/06/17 10:31:19;;;;;;;;;8.00;8.00;;;;;36.41;21.20;101551.38;5109718;27;45204;-64
2022/06/17 10:33:45;;;;;;;;;10.00;8.00;;;;;36.08;20.44;101549.84;5091016;27;45268;-60
2022/06/17 10:36:11;;;;;;;;;8.00;8.00;;;;;35.75;20.86;101555.72;5070816;27;45533;-61
2022/06/17 10:38:43;;;;;;;;;7.00;7.00;;;;;35.30;21.65;101555.09;5076554;27;45659;-60
2022/06/17 10:41:10;;;;;;;;;10.40;9.00;;;;;34.83;21.89;101552.63;5077743;27;46191;-60
2022/06/17 10:43:54;;;;;;;;;8.80;8.80;;;;;34.34;22.26;101558.81;5068161;27;45287;-59
2022/06/17 10:46:28;;;;;;;;;8.00;8.00;;;;;33.96;22.00;101556.84;5075372;27;45597;-59
2022/06/17 10:49:01;;;;;;;;;10.40;10.40;;;;;33.67;22.71;101555.41;5077512;27;45563;-62
2022/06/17 10:51:28;;;;;;;;;7.00;6.40;;;;;33.35;23.12;101559.91;5075852;27;45598;-60
2022/06/17 10:54:01;;;;;;;;;10.00;8.80;;;;;33.07;23.05;101553.69;5074099;27;45255;-62
2022/06/17 10:56:35;;;;;;;;;8.20;8.20;;;;;32.85;24.51;101555.81;5082226;27;45403;-62
2022/06/17 10:59:10;;;;;;;;;10.40;8.80;;;;;32.70;25.17;101553.22;5076900;27;45471;-62
2022/06/17 11:01:47;;;;;;;;;10.60;8.80;;;;;32.50;24.35;101557.78;5076187;27;47390;-62
2022/06/17 11:04:19;;;;;;;;;7.80;7.80;;;;;32.38;24.73;101556.69;5075735;27;45488;-60
2022/06/17 11:07:15;;;;;;;;;8.80;8.80;;;;;32.34;24.77;101569.19;5071375;27;45504;-59
2022/06/17 11:09:53;;;;;;;;;7.60;7.40;;;;;32.27;24.86;101561.69;5063256;27;45500;-62
2022/06/17 11:12:24;;;;;;;;;9.20;9.20;;;;;32.14;24.88;101553.38;5075305;27;45323;-61
2022/06/17 11:15:06;;;;;;;;;9.20;9.20;;;;;32.04;25.03;101546.59;5071870;27;45587;-61
2022/06/17 11:17:46;;;;;;;;;10.80;9.40;;;;;31.99;25.05;101555.41;5066310;27;45717;-61
2022/06/17 11:20:20;;;;;;;;;8.80;8.80;;;;;31.94;24.59;101563.44;5067826;28;47268;-62
2022/06/17 11:22:59;;;;;;;;;9.00;9.00;;;;;31.82;23.75;101563.16;5069725;27;45444;-61
2022/06/17 11:25:30;;;;;;;;;7.80;7.80;;;;;31.78;24.67;101556.38;5075945;27;45226;-60
2022/06/17 11:28:19;;;;;;;;;8.40;8.40;;;;;31.74;24.17;101545.97;5077770;27;45352;-61
2022/06/17 11:30:55;;;;;;;;;5.20;5.20;;;;;31.72;23.45;101545.28;5076390;27;45426;-60
2022/06/17 11:33:36;;;;;;;;;6.80;6.80;;;;;31.68;23.62;101545.69;5077167;27;46230;-61
2022/06/17 11:36:03;;;;;;;;;6.00;4.60;;;;;31.79;23.83;101555.31;5076454;28;45343;-61
2022/06/17 11:38:31;;;;;;;;;7.20;6.20;;;;;31.81;23.28;101549.63;5063992;27;45253;-61
2022/06/17 11:40:57;;;;;;;;;7.00;6.40;;;;;31.78;24.39;101539.03;5075680;27;45618;-60
2022/06/17 11:43:38;;;;;;;;;4.75;4.75;;;;;31.91;24.34;101534.44;5088945;27;46087;-60
2022/06/17 11:46:20;;;;;;;;;6.00;5.00;;;;;31.99;23.42;101531.50;5068312;27;45254;-60